sensor_id;sensor_type;location;lat;lon;timestamp;temperature;humidity
15341;DHT22;7770;52.158;5.372;2023-11-19T00:01:02;13.40;99.90
15341;DHT22;7770;52.158;5.372;2023-11-19T00:03:51;13.40;99.90
15341;DHT22;7770;52.158;5.372;2023-11-19T00:06:36;13.40;99.90
15341;DHT22;7770;52.158;5.372;2023-11-19T00:09:23;13.40;99.90
15341;DHT22;7770;52.158;5.372;2023-11-19T00:12:10;13.40;99.90
15341;DHT22;7770;52.158;5.372;2023-11-19T00:14:56;13.40;99.90
15341;DHT22;7770;52.158;5.372;2023-11-19T00:17:44;13.40;99.90
15341;DHT22;7770;52.158;5.372;2023-11-19T00:20:30;13.40;99.90
15341;DHT22;7770;52.158;5.372;2023-11-19T00:23:16;13.40;99.90
15341;DHT22;7770;52.158;5.372;2023-11-19T00:26:02;13.30;99.90
15341;DHT22;7770;52.158;5.372;2023-11-19T00:28:50;13.30;99.90
15341;DHT22;7770;52.158;5.372;2023-11-19T00:31:36;13.30;99.90
15341;DHT22;7770;52.158;5.372;2023-11-19T00:34:22;13.30;99.90
15341;DHT22;7770;52.158;5.372;2023-11-19T00:37:08;13.30;99.90
15341;DHT22;7770;52.158;5.372;2023-11-19T00:39:54;13.20;99.90
15341;DHT22;7770;52.158;5.372;2023-11-19T00:42:41;13.20;99.90
15341;DHT22;7770;52.158;5.372;2023-11-19T00:45:27;13.20;99.90
15341;DHT22;7770;52.158;5.372;2023-11-19T00:48:13;13.20;99.90
15341;DHT22;7770;52.158;5.372;2023-11-19T00:50:59;13.20;99.90
15341;DHT22;7770;52.158;5.372;2023-11-19T00:53:45;13.20;99.90
15341;DHT22;7770;52.158;5.372;2023-11-19T00:56:31;13.20;99.90
15341;DHT22;7770;52.158;5.372;2023-11-19T00:59:17;13.30;99.90
15341;DHT22;7770;52.158;5.372;2023-11-19T01:02:03;13.30;99.90
15341;DHT22;7770;52.158;5.372;2023-11-19T01:04:49;13.30;99.90
15341;DHT22;7770;52.158;5.372;2023-11-19T01:07:35;13.30;99.90
15341;DHT22;7770;52.158;5.372;2023-11-19T01:10:20;13.20;99.90
15341;DHT22;7770;52.158;5.372;2023-11-19T01:13:06;13.20;99.90
15341;DHT22;7770;52.158;5.372;2023-11-19T01:15:52;13.20;99.90
15341;DHT22;7770;52.158;5.372;2023-11-19T01:18:38;13.20;99.90
15341;DHT22;7770;52.158;5.372;2023-11-19T01:21:24;13.20;99.90
15341;DHT22;7770;52.158;5.372;2023-11-19T01:24:10;13.20;99.90
15341;DHT22;7770;52.158;5.372;2023-11-19T01:26:58;13.20;99.90
15341;DHT22;7770;52.158;5.372;2023-11-19T01:29:45;13.20;99.90
15341;DHT22;7770;52.158;5.372;2023-11-19T01:32:31;13.10;99.90
15341;DHT22;7770;52.158;5.372;2023-11-19T01:35:17;13.10;99.90
15341;DHT22;7770;52.158;5.372;2023-11-19T01:38:03;13.10;99.90
15341;DHT22;7770;52.158;5.372;2023-11-19T01:40:49;13.10;99.90
15341;DHT22;7770;52.158;5.372;2023-11-19T01:43:39;13.20;99.90
15341;DHT22;7770;52.158;5.372;2023-11-19T01:46:27;13.20;99.90
15341;DHT22;7770;52.158;5.372;2023-11-19T01:49:14;13.10;99.90
15341;DHT22;7770;52.158;5.372;2023-11-19T01:52:01;13.10;99.90
15341;DHT22;7770;52.158;5.372;2023-11-19T01:54:47;13.10;99.90
15341;DHT22;7770;52.158;5.372;2023-11-19T01:57:33;13.10;99.90
15341;DHT22;7770;52.158;5.372;2023-11-19T02:00:19;13.00;99.90
15341;DHT22;7770;52.158;5.372;2023-11-19T02:03:06;13.00;99.90
15341;DHT22;7770;52.158;5.372;2023-11-19T02:05:53;12.90;99.90
15341;DHT22;7770;52.158;5.372;2023-11-19T02:08:39;12.80;99.90
15341;DHT22;7770;52.158;5.372;2023-11-19T02:11:26;12.80;99.90
15341;DHT22;7770;52.158;5.372;2023-11-19T02:14:15;12.70;99.90
15341;DHT22;7770;52.158;5.372;2023-11-19T02:17:01;12.60;99.90
15341;DHT22;7770;52.158;5.372;2023-11-19T02:19:47;12.60;99.90
15341;DHT22;7770;52.158;5.372;2023-11-19T02:22:33;12.40;99.90
15341;DHT22;7770;52.158;5.372;2023-11-19T02:25:30;12.40;99.90
15341;DHT22;7770;52.158;5.372;2023-11-19T02:28:18;12.40;99.90
15341;DHT22;7770;52.158;5.372;2023-11-19T02:31:04;12.30;99.90
15341;DHT22;7770;52.158;5.372;2023-11-19T02:33:50;12.30;99.90
15341;DHT22;7770;52.158;5.372;2023-11-19T02:36:37;12.20;99.90
15341;DHT22;7770;52.158;5.372;2023-11-19T02:39:23;12.20;99.90
15341;DHT22;7770;52.158;5.372;2023-11-19T02:42:09;12.10;99.90
15341;DHT22;7770;52.158;5.372;2023-11-19T02:44:55;12.10;99.90
15341;DHT22;7770;52.158;5.372;2023-11-19T02:47:42;12.10;99.90
15341;DHT22;7770;52.158;5.372;2023-11-19T02:50:27;12.10;99.90
15341;DHT22;7770;52.158;5.372;2023-11-19T02:53:13;12.10;99.90
15341;DHT22;7770;52.158;5.372;2023-11-19T02:55:59;12.10;99.90
15341;DHT22;7770;52.158;5.372;2023-11-19T02:59:00;12.10;99.90
15341;DHT22;7770;52.158;5.372;2023-11-19T03:02:01;12.00;99.90
15341;DHT22;7770;52.158;5.372;2023-11-19T03:04:46;12.00;99.90
15341;DHT22;7770;52.158;5.372;2023-11-19T03:07:32;12.00;99.90
15341;DHT22;7770;52.158;5.372;2023-11-19T03:10:18;12.00;99.90
15341;DHT22;7770;52.158;5.372;2023-11-19T03:13:04;11.90;99.90
15341;DHT22;7770;52.158;5.372;2023-11-19T03:15:50;11.90;99.90
15341;DHT22;7770;52.158;5.372;2023-11-19T03:18:37;11.90;99.90
15341;DHT22;7770;52.158;5.372;2023-11-19T03:21:30;11.80;99.90
15341;DHT22;7770;52.158;5.372;2023-11-19T03:24:19;11.80;99.90
15341;DHT22;7770;52.158;5.372;2023-11-19T03:27:06;11.90;99.90
15341;DHT22;7770;52.158;5.372;2023-11-19T03:29:52;11.80;99.90
15341;DHT22;7770;52.158;5.372;2023-11-19T03:32:38;11.70;99.90
15341;DHT22;7770;52.158;5.372;2023-11-19T03:35:24;11.60;99.90
15341;DHT22;7770;52.158;5.372;2023-11-19T03:38:10;11.60;99.90
15341;DHT22;7770;52.158;5.372;2023-11-19T03:40:56;11.50;99.90
15341;DHT22;7770;52.158;5.372;2023-11-19T03:43:42;11.60;99.90
15341;DHT22;7770;52.158;5.372;2023-11-19T03:46:28;11.50;99.90
15341;DHT22;7770;52.158;5.372;2023-11-19T03:49:15;11.40;99.90
15341;DHT22;7770;52.158;5.372;2023-11-19T03:52:01;11.40;99.90
15341;DHT22;7770;52.158;5.372;2023-11-19T03:54:47;11.30;99.90
15341;DHT22;7770;52.158;5.372;2023-11-19T03:57:33;11.30;99.90
15341;DHT22;7770;52.158;5.372;2023-11-19T04:00:19;11.20;99.90
15341;DHT22;7770;52.158;5.372;2023-11-19T04:03:06;11.20;99.90
15341;DHT22;7770;52.158;5.372;2023-11-19T04:05:52;11.20;99.90
15341;DHT22;7770;52.158;5.372;2023-11-19T04:08:38;11.20;99.90
15341;DHT22;7770;52.158;5.372;2023-11-19T04:11:24;11.20;99.90
15341;DHT22;7770;52.158;5.372;2023-11-19T04:14:10;11.20;99.90
15341;DHT22;7770;52.158;5.372;2023-11-19T04:16:55;11.20;99.90
15341;DHT22;7770;52.158;5.372;2023-11-19T04:19:41;11.10;99.90
15341;DHT22;7770;52.158;5.372;2023-11-19T04:22:27;11.20;99.90
15341;DHT22;7770;52.158;5.372;2023-11-19T04:25:13;11.20;99.90
15341;DHT22;7770;52.158;5.372;2023-11-19T04:28:00;11.10;99.90
15341;DHT22;7770;52.158;5.372;2023-11-19T04:30:46;11.20;99.90
15341;DHT22;7770;52.158;5.372;2023-11-19T04:33:32;11.10;99.90
15341;DHT22;7770;52.158;5.372;2023-11-19T04:36:18;11.10;99.90
15341;DHT22;7770;52.158;5.372;2023-11-19T04:39:05;11.10;99.90
15341;DHT22;7770;52.158;5.372;2023-11-19T04:41:57;11.10;99.90
15341;DHT22;7770;52.158;5.372;2023-11-19T04:44:43;11.10;99.90
15341;DHT22;7770;52.158;5.372;2023-11-19T04:47:29;11.00;99.90
15341;DHT22;7770;52.158;5.372;2023-11-19T04:50:15;11.10;99.90
15341;DHT22;7770;52.158;5.372;2023-11-19T04:53:01;11.00;99.90
15341;DHT22;7770;52.158;5.372;2023-11-19T04:55:48;11.10;99.90
15341;DHT22;7770;52.158;5.372;2023-11-19T04:58:34;11.00;99.90
15341;DHT22;7770;52.158;5.372;2023-11-19T05:01:21;11.00;99.90
15341;DHT22;7770;52.158;5.372;2023-11-19T05:04:07;11.00;99.90
15341;DHT22;7770;52.158;5.372;2023-11-19T05:06:53;11.00;99.90
15341;DHT22;7770;52.158;5.372;2023-11-19T05:09:39;10.90;99.90
15341;DHT22;7770;52.158;5.372;2023-11-19T05:12:25;11.00;99.90
15341;DHT22;7770;52.158;5.372;2023-11-19T05:15:11;11.00;99.90
15341;DHT22;7770;52.158;5.372;2023-11-19T05:17:57;11.00;99.90
15341;DHT22;7770;52.158;5.372;2023-11-19T05:20:43;11.10;99.90
15341;DHT22;7770;52.158;5.372;2023-11-19T05:23:29;11.10;99.90
15341;DHT22;7770;52.158;5.372;2023-11-19T05:26:22;11.00;99.90
15341;DHT22;7770;52.158;5.372;2023-11-19T05:29:08;10.90;99.90
15341;DHT22;7770;52.158;5.372;2023-11-19T05:31:54;10.90;99.90
15341;DHT22;7770;52.158;5.372;2023-11-19T05:34:41;10.90;99.90
15341;DHT22;7770;52.158;5.372;2023-11-19T05:37:27;10.90;99.90
15341;DHT22;7770;52.158;5.372;2023-11-19T05:40:13;10.90;99.90
15341;DHT22;7770;52.158;5.372;2023-11-19T05:43:01;10.80;99.90
15341;DHT22;7770;52.158;5.372;2023-11-19T05:45:47;10.90;99.90
15341;DHT22;7770;52.158;5.372;2023-11-19T05:48:33;10.80;99.90
15341;DHT22;7770;52.158;5.372;2023-11-19T05:51:19;10.70;99.90
15341;DHT22;7770;52.158;5.372;2023-11-19T05:54:09;10.70;99.90
15341;DHT22;7770;52.158;5.372;2023-11-19T05:56:56;10.80;99.90
15341;DHT22;7770;52.158;5.372;2023-11-19T05:59:43;10.70;99.90
15341;DHT22;7770;52.158;5.372;2023-11-19T06:02:29;10.80;99.90
15341;DHT22;7770;52.158;5.372;2023-11-19T06:05:15;10.80;99.90
15341;DHT22;7770;52.158;5.372;2023-11-19T06:08:01;10.70;99.90
15341;DHT22;7770;52.158;5.372;2023-11-19T06:10:47;10.70;99.90
15341;DHT22;7770;52.158;5.372;2023-11-19T06:13:36;10.70;99.90
15341;DHT22;7770;52.158;5.372;2023-11-19T06:16:22;10.80;99.90
15341;DHT22;7770;52.158;5.372;2023-11-19T06:19:08;10.80;99.90
15341;DHT22;7770;52.158;5.372;2023-11-19T06:21:55;10.70;99.90
15341;DHT22;7770;52.158;5.372;2023-11-19T06:24:41;10.70;99.90
15341;DHT22;7770;52.158;5.372;2023-11-19T06:27:27;10.70;99.90
15341;DHT22;7770;52.158;5.372;2023-11-19T06:30:13;10.70;99.90
15341;DHT22;7770;52.158;5.372;2023-11-19T06:32:59;10.70;99.90
15341;DHT22;7770;52.158;5.372;2023-11-19T06:35:45;10.70;99.90
15341;DHT22;7770;52.158;5.372;2023-11-19T06:38:31;10.60;99.90
15341;DHT22;7770;52.158;5.372;2023-11-19T06:41:17;10.50;99.90
15341;DHT22;7770;52.158;5.372;2023-11-19T06:44:03;10.50;99.90
15341;DHT22;7770;52.158;5.372;2023-11-19T06:46:50;10.60;99.90
15341;DHT22;7770;52.158;5.372;2023-11-19T06:49:36;10.60;99.90
15341;DHT22;7770;52.158;5.372;2023-11-19T06:52:22;10.70;99.90
15341;DHT22;7770;52.158;5.372;2023-11-19T06:55:09;10.80;99.90
15341;DHT22;7770;52.158;5.372;2023-11-19T06:57:55;10.80;99.90
15341;DHT22;7770;52.158;5.372;2023-11-19T07:00:41;10.80;99.90
15341;DHT22;7770;52.158;5.372;2023-11-19T07:03:27;10.90;99.90
15341;DHT22;7770;52.158;5.372;2023-11-19T07:06:12;10.90;99.90
15341;DHT22;7770;52.158;5.372;2023-11-19T07:08:59;10.90;99.90
15341;DHT22;7770;52.158;5.372;2023-11-19T07:11:45;10.90;99.90
15341;DHT22;7770;52.158;5.372;2023-11-19T07:14:31;11.00;99.90
15341;DHT22;7770;52.158;5.372;2023-11-19T07:17:17;11.00;99.90
15341;DHT22;7770;52.158;5.372;2023-11-19T07:20:03;10.90;99.90
15341;DHT22;7770;52.158;5.372;2023-11-19T07:22:49;10.80;99.90
15341;DHT22;7770;52.158;5.372;2023-11-19T07:25:36;10.90;99.90
15341;DHT22;7770;52.158;5.372;2023-11-19T07:28:22;10.90;99.90
15341;DHT22;7770;52.158;5.372;2023-11-19T07:31:08;10.90;99.90
15341;DHT22;7770;52.158;5.372;2023-11-19T07:33:54;11.00;99.90
15341;DHT22;7770;52.158;5.372;2023-11-19T07:36:40;11.10;99.90
15341;DHT22;7770;52.158;5.372;2023-11-19T07:39:26;11.10;99.90
15341;DHT22;7770;52.158;5.372;2023-11-19T07:42:12;11.20;99.90
15341;DHT22;7770;52.158;5.372;2023-11-19T07:44:58;11.20;99.90
15341;DHT22;7770;52.158;5.372;2023-11-19T07:47:44;11.30;99.90
15341;DHT22;7770;52.158;5.372;2023-11-19T07:50:33;11.40;99.90
15341;DHT22;7770;52.158;5.372;2023-11-19T07:53:19;11.40;99.90
15341;DHT22;7770;52.158;5.372;2023-11-19T07:56:05;11.40;99.90
15341;DHT22;7770;52.158;5.372;2023-11-19T07:58:51;11.50;99.90
15341;DHT22;7770;52.158;5.372;2023-11-19T08:01:38;11.50;99.90
15341;DHT22;7770;52.158;5.372;2023-11-19T08:04:24;11.50;99.90
15341;DHT22;7770;52.158;5.372;2023-11-19T08:07:10;11.60;99.90
15341;DHT22;7770;52.158;5.372;2023-11-19T08:09:56;11.80;99.90
15341;DHT22;7770;52.158;5.372;2023-11-19T08:12:42;12.20;99.90
15341;DHT22;7770;52.158;5.372;2023-11-19T08:15:27;12.40;99.90
15341;DHT22;7770;52.158;5.372;2023-11-19T08:18:13;12.60;99.90
15341;DHT22;7770;52.158;5.372;2023-11-19T08:20:59;12.60;99.90
15341;DHT22;7770;52.158;5.372;2023-11-19T08:23:46;12.90;99.90
15341;DHT22;7770;52.158;5.372;2023-11-19T08:26:32;13.00;99.90
15341;DHT22;7770;52.158;5.372;2023-11-19T08:29:18;12.90;99.90
15341;DHT22;7770;52.158;5.372;2023-11-19T08:32:04;12.90;99.90
15341;DHT22;7770;52.158;5.372;2023-11-19T08:34:50;13.30;99.90
15341;DHT22;7770;52.158;5.372;2023-11-19T08:37:36;13.30;99.90
15341;DHT22;7770;52.158;5.372;2023-11-19T08:40:23;13.10;99.90
15341;DHT22;7770;52.158;5.372;2023-11-19T08:43:09;13.10;99.90
15341;DHT22;7770;52.158;5.372;2023-11-19T08:45:54;13.20;99.90
15341;DHT22;7770;52.158;5.372;2023-11-19T08:48:40;13.40;99.90
15341;DHT22;7770;52.158;5.372;2023-11-19T08:51:26;13.40;99.90
15341;DHT22;7770;52.158;5.372;2023-11-19T08:54:14;13.30;99.90
15341;DHT22;7770;52.158;5.372;2023-11-19T08:56:59;13.10;99.90
15341;DHT22;7770;52.158;5.372;2023-11-19T08:59:46;12.90;99.90
15341;DHT22;7770;52.158;5.372;2023-11-19T09:02:32;12.80;99.90
15341;DHT22;7770;52.158;5.372;2023-11-19T09:05:18;12.90;99.90
15341;DHT22;7770;52.158;5.372;2023-11-19T09:08:04;12.80;99.90
15341;DHT22;7770;52.158;5.372;2023-11-19T09:10:50;12.90;99.90
15341;DHT22;7770;52.158;5.372;2023-11-19T09:13:36;12.80;99.90
15341;DHT22;7770;52.158;5.372;2023-11-19T09:16:22;12.90;99.90
15341;DHT22;7770;52.158;5.372;2023-11-19T09:19:07;13.00;99.90
15341;DHT22;7770;52.158;5.372;2023-11-19T09:21:53;13.10;99.90
15341;DHT22;7770;52.158;5.372;2023-11-19T09:24:39;13.00;99.90
15341;DHT22;7770;52.158;5.372;2023-11-19T09:27:25;12.90;99.90
15341;DHT22;7770;52.158;5.372;2023-11-19T09:30:12;12.70;99.90
15341;DHT22;7770;52.158;5.372;2023-11-19T09:32:58;12.70;99.90
15341;DHT22;7770;52.158;5.372;2023-11-19T09:35:45;12.70;99.90
15341;DHT22;7770;52.158;5.372;2023-11-19T09:38:31;12.70;99.90
15341;DHT22;7770;52.158;5.372;2023-11-19T09:41:17;12.70;99.90
15341;DHT22;7770;52.158;5.372;2023-11-19T09:44:05;12.80;99.90
15341;DHT22;7770;52.158;5.372;2023-11-19T09:46:51;12.90;99.90
15341;DHT22;7770;52.158;5.372;2023-11-19T09:49:37;13.00;99.90
15341;DHT22;7770;52.158;5.372;2023-11-19T09:52:24;13.10;99.90
15341;DHT22;7770;52.158;5.372;2023-11-19T09:55:10;13.00;99.90
15341;DHT22;7770;52.158;5.372;2023-11-19T09:57:57;13.00;99.90
15341;DHT22;7770;52.158;5.372;2023-11-19T10:00:47;13.00;99.90
15341;DHT22;7770;52.158;5.372;2023-11-19T10:03:34;13.10;99.90
15341;DHT22;7770;52.158;5.372;2023-11-19T10:06:24;13.20;99.90
15341;DHT22;7770;52.158;5.372;2023-11-19T10:09:12;13.30;99.90
15341;DHT22;7770;52.158;5.372;2023-11-19T10:12:00;13.30;99.90
15341;DHT22;7770;52.158;5.372;2023-11-19T10:14:48;13.30;99.90
15341;DHT22;7770;52.158;5.372;2023-11-19T10:17:34;13.20;99.90
15341;DHT22;7770;52.158;5.372;2023-11-19T10:20:20;13.30;99.90
15341;DHT22;7770;52.158;5.372;2023-11-19T10:23:06;13.70;99.90
15341;DHT22;7770;52.158;5.372;2023-11-19T10:25:53;14.30;99.90
15341;DHT22;7770;52.158;5.372;2023-11-19T10:28:39;14.40;99.90
15341;DHT22;7770;52.158;5.372;2023-11-19T10:31:28;14.30;99.90
15341;DHT22;7770;52.158;5.372;2023-11-19T10:34:25;14.20;99.90
15341;DHT22;7770;52.158;5.372;2023-11-19T10:37:27;14.20;99.90
15341;DHT22;7770;52.158;5.372;2023-11-19T10:40:15;14.50;99.90
15341;DHT22;7770;52.158;5.372;2023-11-19T10:43:04;15.10;99.90
15341;DHT22;7770;52.158;5.372;2023-11-19T10:45:50;15.80;99.90
15341;DHT22;7770;52.158;5.372;2023-11-19T10:48:36;15.60;99.90
15341;DHT22;7770;52.158;5.372;2023-11-19T10:51:22;15.80;99.90
15341;DHT22;7770;52.158;5.372;2023-11-19T10:54:09;15.80;99.90
15341;DHT22;7770;52.158;5.372;2023-11-19T10:56:59;15.90;99.90
15341;DHT22;7770;52.158;5.372;2023-11-19T10:59:47;16.30;99.90
15341;DHT22;7770;52.158;5.372;2023-11-19T11:02:35;17.30;99.90
15341;DHT22;7770;52.158;5.372;2023-11-19T11:05:22;17.40;99.90
15341;DHT22;7770;52.158;5.372;2023-11-19T11:08:09;17.50;99.90
15341;DHT22;7770;52.158;5.372;2023-11-19T11:10:55;17.70;99.90
15341;DHT22;7770;52.158;5.372;2023-11-19T11:13:42;17.90;99.90
15341;DHT22;7770;52.158;5.372;2023-11-19T11:16:30;17.90;99.90
15341;DHT22;7770;52.158;5.372;2023-11-19T11:19:17;17.70;99.90
15341;DHT22;7770;52.158;5.372;2023-11-19T11:22:04;17.30;99.90
15341;DHT22;7770;52.158;5.372;2023-11-19T11:24:56;17.30;99.90
15341;DHT22;7770;52.158;5.372;2023-11-19T11:31:02;16.80;99.90
15341;DHT22;7770;52.158;5.372;2023-11-19T11:40:24;15.50;99.90
15341;DHT22;7770;52.158;5.372;2023-11-19T11:43:43;15.30;99.90
15341;DHT22;7770;52.158;5.372;2023-11-19T11:49:25;15.20;99.90
15341;DHT22;7770;52.158;5.372;2023-11-19T11:52:11;15.20;99.90
15341;DHT22;7770;52.158;5.372;2023-11-19T11:55:04;15.00;99.90
15341;DHT22;7770;52.158;5.372;2023-11-19T11:57:54;14.90;99.90
15341;DHT22;7770;52.158;5.372;2023-11-19T12:00:41;14.70;99.90
15341;DHT22;7770;52.158;5.372;2023-11-19T12:03:28;14.50;99.90
15341;DHT22;7770;52.158;5.372;2023-11-19T12:06:15;14.30;99.90
15341;DHT22;7770;52.158;5.372;2023-11-19T12:09:01;14.40;99.90
15341;DHT22;7770;52.158;5.372;2023-11-19T12:11:47;14.30;99.90
15341;DHT22;7770;52.158;5.372;2023-11-19T12:17:47;14.20;99.90
15341;DHT22;7770;52.158;5.372;2023-11-19T12:20:36;14.30;99.90
15341;DHT22;7770;52.158;5.372;2023-11-19T12:23:23;14.30;99.90
15341;DHT22;7770;52.158;5.372;2023-11-19T12:26:21;14.50;99.90
15341;DHT22;7770;52.158;5.372;2023-11-19T12:29:15;14.70;99.90
15341;DHT22;7770;52.158;5.372;2023-11-19T12:32:01;14.40;99.90
15341;DHT22;7770;52.158;5.372;2023-11-19T12:34:48;14.30;99.90
15341;DHT22;7770;52.158;5.372;2023-11-19T12:37:39;14.10;99.90
15341;DHT22;7770;52.158;5.372;2023-11-19T12:40:26;14.10;99.90
15341;DHT22;7770;52.158;5.372;2023-11-19T12:43:21;14.10;99.90
15341;DHT22;7770;52.158;5.372;2023-11-19T12:46:23;14.00;99.90
15341;DHT22;7770;52.158;5.372;2023-11-19T12:49:11;13.90;99.90
15341;DHT22;7770;52.158;5.372;2023-11-19T12:51:57;13.90;99.90
15341;DHT22;7770;52.158;5.372;2023-11-19T12:54:43;13.80;99.90
15341;DHT22;7770;52.158;5.372;2023-11-19T12:57:40;13.80;99.90
15341;DHT22;7770;52.158;5.372;2023-11-19T13:00:27;13.80;99.90
15341;DHT22;7770;52.158;5.372;2023-11-19T13:03:29;13.80;99.90
15341;DHT22;7770;52.158;5.372;2023-11-19T13:06:15;13.80;99.90
15341;DHT22;7770;52.158;5.372;2023-11-19T13:09:01;13.70;99.90
15341;DHT22;7770;52.158;5.372;2023-11-19T13:11:47;13.60;99.90
15341;DHT22;7770;52.158;5.372;2023-11-19T13:14:36;13.60;99.90
15341;DHT22;7770;52.158;5.372;2023-11-19T13:17:23;13.40;99.90
15341;DHT22;7770;52.158;5.372;2023-11-19T13:20:10;13.30;99.90
15341;DHT22;7770;52.158;5.372;2023-11-19T13:22:59;13.30;99.90
15341;DHT22;7770;52.158;5.372;2023-11-19T13:25:45;13.30;99.90
15341;DHT22;7770;52.158;5.372;2023-11-19T13:28:31;13.30;99.90
15341;DHT22;7770;52.158;5.372;2023-11-19T13:31:17;13.30;99.90
15341;DHT22;7770;52.158;5.372;2023-11-19T13:34:03;13.30;99.90
15341;DHT22;7770;52.158;5.372;2023-11-19T13:36:49;13.40;99.90
15341;DHT22;7770;52.158;5.372;2023-11-19T13:39:35;13.40;99.90
15341;DHT22;7770;52.158;5.372;2023-11-19T13:42:21;13.40;99.90
15341;DHT22;7770;52.158;5.372;2023-11-19T13:47:58;13.60;99.90
15341;DHT22;7770;52.158;5.372;2023-11-19T13:50:44;13.50;99.90
15341;DHT22;7770;52.158;5.372;2023-11-19T13:53:30;13.60;99.90
15341;DHT22;7770;52.158;5.372;2023-11-19T13:56:16;13.70;99.90
15341;DHT22;7770;52.158;5.372;2023-11-19T13:59:02;13.70;99.90
15341;DHT22;7770;52.158;5.372;2023-11-19T14:01:48;13.80;99.90
15341;DHT22;7770;52.158;5.372;2023-11-19T14:04:34;13.80;99.90
15341;DHT22;7770;52.158;5.372;2023-11-19T14:07:20;13.70;99.90
15341;DHT22;7770;52.158;5.372;2023-11-19T14:10:07;13.60;99.90
15341;DHT22;7770;52.158;5.372;2023-11-19T14:12:54;13.50;99.90
15341;DHT22;7770;52.158;5.372;2023-11-19T14:15:40;13.40;99.90
15341;DHT22;7770;52.158;5.372;2023-11-19T14:18:26;13.40;99.90
15341;DHT22;7770;52.158;5.372;2023-11-19T14:21:12;13.40;99.90
15341;DHT22;7770;52.158;5.372;2023-11-19T14:23:58;13.40;99.90
15341;DHT22;7770;52.158;5.372;2023-11-19T14:26:46;13.30;99.90
15341;DHT22;7770;52.158;5.372;2023-11-19T14:29:32;13.30;99.90
15341;DHT22;7770;52.158;5.372;2023-11-19T14:32:19;13.30;99.90
15341;DHT22;7770;52.158;5.372;2023-11-19T14:35:06;13.20;99.90
15341;DHT22;7770;52.158;5.372;2023-11-19T14:37:52;13.10;99.90
15341;DHT22;7770;52.158;5.372;2023-11-19T14:40:38;13.10;99.90
15341;DHT22;7770;52.158;5.372;2023-11-19T14:43:24;13.00;99.90
15341;DHT22;7770;52.158;5.372;2023-11-19T14:46:10;12.90;99.90
15341;DHT22;7770;52.158;5.372;2023-11-19T14:48:56;12.90;99.90
15341;DHT22;7770;52.158;5.372;2023-11-19T14:51:42;12.90;99.90
15341;DHT22;7770;52.158;5.372;2023-11-19T14:54:28;12.90;99.90
15341;DHT22;7770;52.158;5.372;2023-11-19T14:57:13;12.90;99.90
15341;DHT22;7770;52.158;5.372;2023-11-19T15:00:00;12.90;99.90
15341;DHT22;7770;52.158;5.372;2023-11-19T15:02:46;13.00;99.90
15341;DHT22;7770;52.158;5.372;2023-11-19T15:05:32;12.90;99.90
15341;DHT22;7770;52.158;5.372;2023-11-19T15:08:18;12.90;99.90
15341;DHT22;7770;52.158;5.372;2023-11-19T15:11:05;12.90;99.90
15341;DHT22;7770;52.158;5.372;2023-11-19T15:13:52;12.90;99.90
15341;DHT22;7770;52.158;5.372;2023-11-19T15:16:38;12.90;99.90
15341;DHT22;7770;52.158;5.372;2023-11-19T15:19:23;12.80;99.90
15341;DHT22;7770;52.158;5.372;2023-11-19T15:22:09;12.90;99.90
15341;DHT22;7770;52.158;5.372;2023-11-19T15:24:57;12.80;99.90
15341;DHT22;7770;52.158;5.372;2023-11-19T15:27:42;12.80;99.90
15341;DHT22;7770;52.158;5.372;2023-11-19T15:30:28;12.80;99.90
15341;DHT22;7770;52.158;5.372;2023-11-19T15:33:14;12.80;99.90
15341;DHT22;7770;52.158;5.372;2023-11-19T15:36:01;12.80;99.90
15341;DHT22;7770;52.158;5.372;2023-11-19T15:38:49;12.80;99.90
15341;DHT22;7770;52.158;5.372;2023-11-19T15:41:34;12.80;99.90
15341;DHT22;7770;52.158;5.372;2023-11-19T15:44:21;12.80;99.90
15341;DHT22;7770;52.158;5.372;2023-11-19T15:47:06;12.80;99.90
15341;DHT22;7770;52.158;5.372;2023-11-19T15:49:53;12.80;99.90
15341;DHT22;7770;52.158;5.372;2023-11-19T15:52:39;12.80;99.90
15341;DHT22;7770;52.158;5.372;2023-11-19T15:55:25;12.80;99.90
15341;DHT22;7770;52.158;5.372;2023-11-19T15:58:11;12.80;99.90
15341;DHT22;7770;52.158;5.372;2023-11-19T16:00:57;12.80;99.90
15341;DHT22;7770;52.158;5.372;2023-11-19T16:03:42;12.80;99.90
15341;DHT22;7770;52.158;5.372;2023-11-19T16:06:28;12.80;99.90
15341;DHT22;7770;52.158;5.372;2023-11-19T16:09:14;12.80;99.90
15341;DHT22;7770;52.158;5.372;2023-11-19T16:12:02;12.80;99.90
15341;DHT22;7770;52.158;5.372;2023-11-19T16:14:48;12.80;99.90
15341;DHT22;7770;52.158;5.372;2023-11-19T16:17:34;12.80;99.90
15341;DHT22;7770;52.158;5.372;2023-11-19T16:20:20;12.80;99.90
15341;DHT22;7770;52.158;5.372;2023-11-19T16:23:06;12.80;99.90
15341;DHT22;7770;52.158;5.372;2023-11-19T16:25:52;12.80;99.90
15341;DHT22;7770;52.158;5.372;2023-11-19T16:28:38;12.80;99.90
15341;DHT22;7770;52.158;5.372;2023-11-19T16:31:24;12.80;99.90
15341;DHT22;7770;52.158;5.372;2023-11-19T16:34:10;12.70;99.90
15341;DHT22;7770;52.158;5.372;2023-11-19T16:36:56;12.70;99.90
15341;DHT22;7770;52.158;5.372;2023-11-19T16:39:41;12.60;99.90
15341;DHT22;7770;52.158;5.372;2023-11-19T16:42:28;12.50;99.90
15341;DHT22;7770;52.158;5.372;2023-11-19T16:45:14;12.40;99.90
15341;DHT22;7770;52.158;5.372;2023-11-19T16:48:00;12.30;99.90
15341;DHT22;7770;52.158;5.372;2023-11-19T16:50:46;12.20;99.90
15341;DHT22;7770;52.158;5.372;2023-11-19T16:53:34;12.00;99.90
15341;DHT22;7770;52.158;5.372;2023-11-19T16:56:20;12.00;99.90
15341;DHT22;7770;52.158;5.372;2023-11-19T16:59:06;11.90;99.90
15341;DHT22;7770;52.158;5.372;2023-11-19T17:01:51;11.80;99.90
15341;DHT22;7770;52.158;5.372;2023-11-19T17:04:37;11.80;99.90
15341;DHT22;7770;52.158;5.372;2023-11-19T17:07:23;11.70;99.90
15341;DHT22;7770;52.158;5.372;2023-11-19T17:10:11;11.70;99.90
15341;DHT22;7770;52.158;5.372;2023-11-19T17:12:57;11.70;99.90
15341;DHT22;7770;52.158;5.372;2023-11-19T17:15:43;11.60;99.90
15341;DHT22;7770;52.158;5.372;2023-11-19T17:18:29;11.60;99.90
15341;DHT22;7770;52.158;5.372;2023-11-19T17:21:15;11.60;99.90
15341;DHT22;7770;52.158;5.372;2023-11-19T17:24:00;11.60;99.90
15341;DHT22;7770;52.158;5.372;2023-11-19T17:26:46;11.60;99.90
15341;DHT22;7770;52.158;5.372;2023-11-19T17:29:32;11.60;99.90
15341;DHT22;7770;52.158;5.372;2023-11-19T17:32:18;11.60;99.90
15341;DHT22;7770;52.158;5.372;2023-11-19T17:35:05;11.60;99.90
15341;DHT22;7770;52.158;5.372;2023-11-19T17:37:51;11.60;99.90
15341;DHT22;7770;52.158;5.372;2023-11-19T17:40:37;11.60;99.90
15341;DHT22;7770;52.158;5.372;2023-11-19T17:43:24;11.60;99.90
15341;DHT22;7770;52.158;5.372;2023-11-19T17:46:10;11.60;99.90
15341;DHT22;7770;52.158;5.372;2023-11-19T17:48:56;11.50;99.90
15341;DHT22;7770;52.158;5.372;2023-11-19T17:51:42;11.60;99.90
15341;DHT22;7770;52.158;5.372;2023-11-19T17:54:28;11.50;99.90
15341;DHT22;7770;52.158;5.372;2023-11-19T17:57:15;11.50;99.90
15341;DHT22;7770;52.158;5.372;2023-11-19T18:00:01;11.60;99.90
15341;DHT22;7770;52.158;5.372;2023-11-19T18:02:51;11.50;99.90
15341;DHT22;7770;52.158;5.372;2023-11-19T18:05:37;11.60;99.90
15341;DHT22;7770;52.158;5.372;2023-11-19T18:08:26;11.60;99.90